sensor_id;sensor_type;location;lat;lon;timestamp;temperature;humidity
29453;DHT22;16424;50.956;5.320;2023-04-06T00:01:27;5.10;99.90
29453;DHT22;16424;50.956;5.320;2023-04-06T00:03:53;5.10;99.90
29453;DHT22;16424;50.956;5.320;2023-04-06T00:06:18;5.30;99.90
29453;DHT22;16424;50.956;5.320;2023-04-06T00:08:44;5.40;99.90
29453;DHT22;16424;50.956;5.320;2023-04-06T00:11:10;5.40;99.90
29453;DHT22;16424;50.956;5.320;2023-04-06T00:13:36;5.40;99.90
29453;DHT22;16424;50.956;5.320;2023-04-06T00:16:01;5.40;99.90
29453;DHT22;16424;50.956;5.320;2023-04-06T00:18:27;5.40;99.90
29453;DHT22;16424;50.956;5.320;2023-04-06T00:20:53;5.40;99.90
29453;DHT22;16424;50.956;5.320;2023-04-06T00:23:18;5.50;99.90
29453;DHT22;16424;50.956;5.320;2023-04-06T00:25:44;5.40;99.90
29453;DHT22;16424;50.956;5.320;2023-04-06T00:28:10;5.40;99.90
29453;DHT22;16424;50.956;5.320;2023-04-06T00:30:36;5.40;99.90
29453;DHT22;16424;50.956;5.320;2023-04-06T00:33:01;5.30;99.90
29453;DHT22;16424;50.956;5.320;2023-04-06T00:35:27;5.30;99.90
29453;DHT22;16424;50.956;5.320;2023-04-06T00:37:53;5.10;99.90
29453;DHT22;16424;50.956;5.320;2023-04-06T00:40:19;5.00;99.90
29453;DHT22;16424;50.956;5.320;2023-04-06T00:42:44;5.00;99.90
29453;DHT22;16424;50.956;5.320;2023-04-06T00:45:10;5.00;99.90
29453;DHT22;16424;50.956;5.320;2023-04-06T00:47:36;4.80;99.90
29453;DHT22;16424;50.956;5.320;2023-04-06T00:50:02;4.80;99.90
29453;DHT22;16424;50.956;5.320;2023-04-06T00:52:28;4.80;99.90
29453;DHT22;16424;50.956;5.320;2023-04-06T00:54:53;4.80;99.90
29453;DHT22;16424;50.956;5.320;2023-04-06T00:57:19;4.70;99.90
29453;DHT22;16424;50.956;5.320;2023-04-06T00:59:45;4.70;99.90
29453;DHT22;16424;50.956;5.320;2023-04-06T01:02:11;4.60;99.90
29453;DHT22;16424;50.956;5.320;2023-04-06T01:04:37;4.60;99.90
29453;DHT22;16424;50.956;5.320;2023-04-06T01:07:03;4.60;99.90
29453;DHT22;16424;50.956;5.320;2023-04-06T01:09:29;4.50;99.90
29453;DHT22;16424;50.956;5.320;2023-04-06T01:11:56;4.60;99.90
29453;DHT22;16424;50.956;5.320;2023-04-06T01:14:22;4.70;99.90
29453;DHT22;16424;50.956;5.320;2023-04-06T01:16:48;4.70;99.90
29453;DHT22;16424;50.956;5.320;2023-04-06T01:19:14;4.70;99.90
29453;DHT22;16424;50.956;5.320;2023-04-06T01:21:41;4.70;99.90
29453;DHT22;16424;50.956;5.320;2023-04-06T01:24:07;4.70;99.90
29453;DHT22;16424;50.956;5.320;2023-04-06T01:26:34;4.70;99.90
29453;DHT22;16424;50.956;5.320;2023-04-06T01:29:01;4.60;99.90
29453;DHT22;16424;50.956;5.320;2023-04-06T01:31:27;4.50;99.90
29453;DHT22;16424;50.956;5.320;2023-04-06T01:33:53;4.40;99.90
29453;DHT22;16424;50.956;5.320;2023-04-06T01:36:19;4.30;99.90
29453;DHT22;16424;50.956;5.320;2023-04-06T01:38:45;4.20;99.90
29453;DHT22;16424;50.956;5.320;2023-04-06T01:41:11;4.20;99.90
29453;DHT22;16424;50.956;5.320;2023-04-06T01:43:36;4.10;99.90
29453;DHT22;16424;50.956;5.320;2023-04-06T01:46:02;4.00;99.90
29453;DHT22;16424;50.956;5.320;2023-04-06T01:48:28;4.00;99.90
29453;DHT22;16424;50.956;5.320;2023-04-06T01:50:54;4.00;99.90
29453;DHT22;16424;50.956;5.320;2023-04-06T01:53:20;3.90;99.90
29453;DHT22;16424;50.956;5.320;2023-04-06T01:55:45;3.90;99.90
29453;DHT22;16424;50.956;5.320;2023-04-06T01:58:12;3.90;99.90
29453;DHT22;16424;50.956;5.320;2023-04-06T02:00:37;4.00;99.90
29453;DHT22;16424;50.956;5.320;2023-04-06T02:03:03;4.10;99.90
29453;DHT22;16424;50.956;5.320;2023-04-06T02:05:30;4.20;99.90
29453;DHT22;16424;50.956;5.320;2023-04-06T02:07:57;4.40;99.90
29453;DHT22;16424;50.956;5.320;2023-04-06T02:10:22;4.50;99.90
29453;DHT22;16424;50.956;5.320;2023-04-06T02:12:49;4.50;99.90
29453;DHT22;16424;50.956;5.320;2023-04-06T02:15:15;4.50;99.90
29453;DHT22;16424;50.956;5.320;2023-04-06T02:17:42;4.50;99.90
29453;DHT22;16424;50.956;5.320;2023-04-06T02:20:08;4.60;99.90
29453;DHT22;16424;50.956;5.320;2023-04-06T02:22:34;4.60;99.90
29453;DHT22;16424;50.956;5.320;2023-04-06T02:25:00;4.60;99.90
29453;DHT22;16424;50.956;5.320;2023-04-06T02:27:26;4.70;99.90
29453;DHT22;16424;50.956;5.320;2023-04-06T02:29:52;4.80;99.90
29453;DHT22;16424;50.956;5.320;2023-04-06T02:32:18;4.70;99.90
29453;DHT22;16424;50.956;5.320;2023-04-06T02:34:43;4.60;99.90
29453;DHT22;16424;50.956;5.320;2023-04-06T02:37:09;4.70;99.90
29453;DHT22;16424;50.956;5.320;2023-04-06T02:39:35;4.70;99.90
29453;DHT22;16424;50.956;5.320;2023-04-06T02:42:01;4.70;99.90
29453;DHT22;16424;50.956;5.320;2023-04-06T02:44:26;4.70;99.90
29453;DHT22;16424;50.956;5.320;2023-04-06T02:46:52;4.70;99.90
29453;DHT22;16424;50.956;5.320;2023-04-06T02:49:18;4.70;99.90
29453;DHT22;16424;50.956;5.320;2023-04-06T02:51:43;4.70;99.90
29453;DHT22;16424;50.956;5.320;2023-04-06T02:54:09;4.70;99.90
29453;DHT22;16424;50.956;5.320;2023-04-06T02:56:35;4.80;99.90
29453;DHT22;16424;50.956;5.320;2023-04-06T02:59:00;4.70;99.90
29453;DHT22;16424;50.956;5.320;2023-04-06T03:01:26;4.70;99.90
29453;DHT22;16424;50.956;5.320;2023-04-06T03:03:52;4.90;99.90
29453;DHT22;16424;50.956;5.320;2023-04-06T03:06:17;5.00;99.90
29453;DHT22;16424;50.956;5.320;2023-04-06T03:08:43;5.10;99.90
29453;DHT22;16424;50.956;5.320;2023-04-06T03:11:09;5.20;99.90
29453;DHT22;16424;50.956;5.320;2023-04-06T03:13:36;5.00;99.90
29453;DHT22;16424;50.956;5.320;2023-04-06T03:16:04;5.00;99.90
29453;DHT22;16424;50.956;5.320;2023-04-06T03:18:30;4.90;99.90
29453;DHT22;16424;50.956;5.320;2023-04-06T03:20:56;4.90;99.90
29453;DHT22;16424;50.956;5.320;2023-04-06T03:23:21;4.80;99.90
29453;DHT22;16424;50.956;5.320;2023-04-06T03:25:47;4.70;99.90
29453;DHT22;16424;50.956;5.320;2023-04-06T03:28:13;4.80;99.90
29453;DHT22;16424;50.956;5.320;2023-04-06T03:30:38;4.80;99.90
29453;DHT22;16424;50.956;5.320;2023-04-06T03:33:04;4.80;99.90
29453;DHT22;16424;50.956;5.320;2023-04-06T03:35:30;5.00;99.90
29453;DHT22;16424;50.956;5.320;2023-04-06T03:37:56;5.00;99.90
29453;DHT22;16424;50.956;5.320;2023-04-06T03:40:21;5.20;99.90
29453;DHT22;16424;50.956;5.320;2023-04-06T03:42:47;5.20;99.90
29453;DHT22;16424;50.956;5.320;2023-04-06T03:45:12;5.20;99.90
29453;DHT22;16424;50.956;5.320;2023-04-06T03:47:39;5.10;99.90
29453;DHT22;16424;50.956;5.320;2023-04-06T03:50:05;5.20;99.90
29453;DHT22;16424;50.956;5.320;2023-04-06T03:52:31;5.30;99.90
29453;DHT22;16424;50.956;5.320;2023-04-06T03:54:57;5.30;99.90
29453;DHT22;16424;50.956;5.320;2023-04-06T03:57:22;5.40;99.90
29453;DHT22;16424;50.956;5.320;2023-04-06T03:59:48;5.30;99.90
29453;DHT22;16424;50.956;5.320;2023-04-06T04:02:14;5.30;99.90
29453;DHT22;16424;50.956;5.320;2023-04-06T04:04:40;5.30;99.90
29453;DHT22;16424;50.956;5.320;2023-04-06T04:07:05;5.40;99.90
29453;DHT22;16424;50.956;5.320;2023-04-06T04:09:31;5.50;99.90
29453;DHT22;16424;50.956;5.320;2023-04-06T04:11:57;5.50;99.90
29453;DHT22;16424;50.956;5.320;2023-04-06T04:14:22;5.50;99.90
29453;DHT22;16424;50.956;5.320;2023-04-06T04:16:48;5.60;99.90
29453;DHT22;16424;50.956;5.320;2023-04-06T04:19:14;5.60;99.90
29453;DHT22;16424;50.956;5.320;2023-04-06T04:21:44;5.40;99.90
29453;DHT22;16424;50.956;5.320;2023-04-06T04:24:10;5.30;99.90
29453;DHT22;16424;50.956;5.320;2023-04-06T04:26:36;5.30;99.90
29453;DHT22;16424;50.956;5.320;2023-04-06T04:29:02;5.50;99.90
29453;DHT22;16424;50.956;5.320;2023-04-06T04:31:28;5.60;99.90
29453;DHT22;16424;50.956;5.320;2023-04-06T04:33:54;5.60;99.90
29453;DHT22;16424;50.956;5.320;2023-04-06T04:36:19;5.60;99.90
29453;DHT22;16424;50.956;5.320;2023-04-06T04:38:45;5.60;99.90
29453;DHT22;16424;50.956;5.320;2023-04-06T04:41:11;5.70;99.90
29453;DHT22;16424;50.956;5.320;2023-04-06T04:43:36;5.80;99.90
29453;DHT22;16424;50.956;5.320;2023-04-06T04:46:02;5.70;99.90
29453;DHT22;16424;50.956;5.320;2023-04-06T04:48:29;5.80;99.90
29453;DHT22;16424;50.956;5.320;2023-04-06T04:50:55;5.70;99.90
29453;DHT22;16424;50.956;5.320;2023-04-06T04:53:20;5.70;99.90
29453;DHT22;16424;50.956;5.320;2023-04-06T04:55:46;5.80;99.90
29453;DHT22;16424;50.956;5.320;2023-04-06T04:58:12;5.70;99.90
29453;DHT22;16424;50.956;5.320;2023-04-06T05:00:44;5.80;99.90
29453;DHT22;16424;50.956;5.320;2023-04-06T05:03:18;5.90;99.90
29453;DHT22;16424;50.956;5.320;2023-04-06T05:05:44;5.90;99.90
29453;DHT22;16424;50.956;5.320;2023-04-06T05:08:11;5.90;99.90
29453;DHT22;16424;50.956;5.320;2023-04-06T05:10:37;5.90;99.90
29453;DHT22;16424;50.956;5.320;2023-04-06T05:13:02;6.00;99.90
29453;DHT22;16424;50.956;5.320;2023-04-06T05:15:28;6.10;99.90
29453;DHT22;16424;50.956;5.320;2023-04-06T05:17:54;6.00;99.90
29453;DHT22;16424;50.956;5.320;2023-04-06T05:20:20;5.90;99.90
29453;DHT22;16424;50.956;5.320;2023-04-06T05:22:45;5.90;99.90
29453;DHT22;16424;50.956;5.320;2023-04-06T05:25:11;6.00;99.90
29453;DHT22;16424;50.956;5.320;2023-04-06T05:27:37;6.00;99.90
29453;DHT22;16424;50.956;5.320;2023-04-06T05:30:03;6.10;99.90
29453;DHT22;16424;50.956;5.320;2023-04-06T05:32:28;6.00;99.90
29453;DHT22;16424;50.956;5.320;2023-04-06T05:34:54;6.00;99.90
29453;DHT22;16424;50.956;5.320;2023-04-06T05:37:21;6.00;99.90
29453;DHT22;16424;50.956;5.320;2023-04-06T05:39:47;6.10;99.90
29453;DHT22;16424;50.956;5.320;2023-04-06T05:42:12;6.30;99.90
29453;DHT22;16424;50.956;5.320;2023-04-06T05:44:38;6.20;99.90
29453;DHT22;16424;50.956;5.320;2023-04-06T05:47:04;6.20;99.90
29453;DHT22;16424;50.956;5.320;2023-04-06T05:49:29;5.90;99.90
29453;DHT22;16424;50.956;5.320;2023-04-06T05:51:55;5.90;99.90
29453;DHT22;16424;50.956;5.320;2023-04-06T05:54:21;6.00;99.90
29453;DHT22;16424;50.956;5.320;2023-04-06T05:56:47;6.00;99.90
29453;DHT22;16424;50.956;5.320;2023-04-06T05:59:12;6.10;99.90
29453;DHT22;16424;50.956;5.320;2023-04-06T06:01:38;6.20;99.90
29453;DHT22;16424;50.956;5.320;2023-04-06T06:04:04;6.40;99.90
29453;DHT22;16424;50.956;5.320;2023-04-06T06:06:29;6.50;99.90
29453;DHT22;16424;50.956;5.320;2023-04-06T06:08:58;6.60;99.90
29453;DHT22;16424;50.956;5.320;2023-04-06T06:11:28;6.60;99.90
29453;DHT22;16424;50.956;5.320;2023-04-06T06:13:55;6.50;99.90
29453;DHT22;16424;50.956;5.320;2023-04-06T06:16:21;6.50;99.90
29453;DHT22;16424;50.956;5.320;2023-04-06T06:18:47;6.40;99.90
29453;DHT22;16424;50.956;5.320;2023-04-06T06:21:13;6.50;99.90
29453;DHT22;16424;50.956;5.320;2023-04-06T06:23:39;6.60;99.90
29453;DHT22;16424;50.956;5.320;2023-04-06T06:26:04;6.60;99.90
29453;DHT22;16424;50.956;5.320;2023-04-06T06:28:30;6.60;99.90
29453;DHT22;16424;50.956;5.320;2023-04-06T06:30:56;6.60;99.90
29453;DHT22;16424;50.956;5.320;2023-04-06T06:33:22;6.50;99.90
29453;DHT22;16424;50.956;5.320;2023-04-06T06:35:48;6.50;99.90
29453;DHT22;16424;50.956;5.320;2023-04-06T06:38:14;6.60;99.90
29453;DHT22;16424;50.956;5.320;2023-04-06T06:40:40;6.60;99.90
29453;DHT22;16424;50.956;5.320;2023-04-06T06:43:06;6.70;99.90
29453;DHT22;16424;50.956;5.320;2023-04-06T06:45:32;6.90;99.90
29453;DHT22;16424;50.956;5.320;2023-04-06T06:47:58;6.90;99.90
29453;DHT22;16424;50.956;5.320;2023-04-06T06:50:23;7.20;99.90
29453;DHT22;16424;50.956;5.320;2023-04-06T06:52:50;7.30;99.90
29453;DHT22;16424;50.956;5.320;2023-04-06T06:55:15;7.20;99.90
29453;DHT22;16424;50.956;5.320;2023-04-06T06:57:41;7.30;99.90
29453;DHT22;16424;50.956;5.320;2023-04-06T07:00:09;7.50;99.90
29453;DHT22;16424;50.956;5.320;2023-04-06T07:02:36;7.70;99.90
29453;DHT22;16424;50.956;5.320;2023-04-06T07:05:02;7.80;99.90
29453;DHT22;16424;50.956;5.320;2023-04-06T07:07:28;7.50;99.90
29453;DHT22;16424;50.956;5.320;2023-04-06T07:09:54;7.50;99.90
29453;DHT22;16424;50.956;5.320;2023-04-06T07:12:19;7.70;99.90
29453;DHT22;16424;50.956;5.320;2023-04-06T07:14:45;8.10;99.90
29453;DHT22;16424;50.956;5.320;2023-04-06T07:17:11;8.40;99.90
29453;DHT22;16424;50.956;5.320;2023-04-06T07:19:36;8.50;99.90
29453;DHT22;16424;50.956;5.320;2023-04-06T07:22:02;8.70;99.90
29453;DHT22;16424;50.956;5.320;2023-04-06T07:24:28;8.80;99.90
29453;DHT22;16424;50.956;5.320;2023-04-06T07:26:55;8.60;99.90
29453;DHT22;16424;50.956;5.320;2023-04-06T07:29:22;8.60;99.90
29453;DHT22;16424;50.956;5.320;2023-04-06T07:31:48;8.60;99.90
29453;DHT22;16424;50.956;5.320;2023-04-06T07:34:15;9.00;99.90
29453;DHT22;16424;50.956;5.320;2023-04-06T07:36:40;9.00;99.90
29453;DHT22;16424;50.956;5.320;2023-04-06T07:39:07;9.10;99.90
29453;DHT22;16424;50.956;5.320;2023-04-06T07:41:33;8.70;99.90
29453;DHT22;16424;50.956;5.320;2023-04-06T07:43:58;8.70;99.90
29453;DHT22;16424;50.956;5.320;2023-04-06T07:46:24;9.00;99.90
29453;DHT22;16424;50.956;5.320;2023-04-06T07:48:50;9.10;99.90
29453;DHT22;16424;50.956;5.320;2023-04-06T07:51:16;9.10;99.90
29453;DHT22;16424;50.956;5.320;2023-04-06T07:53:44;8.90;99.90
29453;DHT22;16424;50.956;5.320;2023-04-06T07:56:10;9.20;99.90
29453;DHT22;16424;50.956;5.320;2023-04-06T07:58:36;9.30;99.90
29453;DHT22;16424;50.956;5.320;2023-04-06T08:01:02;9.30;99.90
29453;DHT22;16424;50.956;5.320;2023-04-06T08:03:27;9.30;99.90
29453;DHT22;16424;50.956;5.320;2023-04-06T08:05:53;9.20;99.90
29453;DHT22;16424;50.956;5.320;2023-04-06T08:08:19;9.30;99.90
29453;DHT22;16424;50.956;5.320;2023-04-06T08:10:49;9.10;99.90
29453;DHT22;16424;50.956;5.320;2023-04-06T08:13:15;9.00;99.90
29453;DHT22;16424;50.956;5.320;2023-04-06T08:15:41;9.20;99.90
29453;DHT22;16424;50.956;5.320;2023-04-06T08:18:08;9.00;99.90
29453;DHT22;16424;50.956;5.320;2023-04-06T08:20:34;9.10;99.90
29453;DHT22;16424;50.956;5.320;2023-04-06T08:23:00;9.40;99.90
29453;DHT22;16424;50.956;5.320;2023-04-06T08:25:25;9.50;99.90
29453;DHT22;16424;50.956;5.320;2023-04-06T08:27:51;9.70;99.90
29453;DHT22;16424;50.956;5.320;2023-04-06T08:30:17;9.70;99.90
29453;DHT22;16424;50.956;5.320;2023-04-06T08:32:45;9.80;99.90
29453;DHT22;16424;50.956;5.320;2023-04-06T08:35:10;9.90;99.90
29453;DHT22;16424;50.956;5.320;2023-04-06T08:37:36;10.10;99.90
29453;DHT22;16424;50.956;5.320;2023-04-06T08:40:02;10.10;99.90
29453;DHT22;16424;50.956;5.320;2023-04-06T08:42:32;10.20;99.90
29453;DHT22;16424;50.956;5.320;2023-04-06T08:44:58;10.50;99.90
29453;DHT22;16424;50.956;5.320;2023-04-06T08:47:24;10.90;99.90
29453;DHT22;16424;50.956;5.320;2023-04-06T08:49:51;11.10;99.90
29453;DHT22;16424;50.956;5.320;2023-04-06T08:52:18;11.10;99.90
29453;DHT22;16424;50.956;5.320;2023-04-06T08:54:44;11.10;99.90
29453;DHT22;16424;50.956;5.320;2023-04-06T08:57:10;11.00;99.90
29453;DHT22;16424;50.956;5.320;2023-04-06T08:59:37;11.00;99.90
29453;DHT22;16424;50.956;5.320;2023-04-06T09:02:04;11.00;99.90
29453;DHT22;16424;50.956;5.320;2023-04-06T09:04:35;11.00;99.90
29453;DHT22;16424;50.956;5.320;2023-04-06T09:07:01;11.00;99.90
29453;DHT22;16424;50.956;5.320;2023-04-06T09:09:27;11.20;99.90
29453;DHT22;16424;50.956;5.320;2023-04-06T09:11:53;11.20;99.90
29453;DHT22;16424;50.956;5.320;2023-04-06T09:14:36;11.40;99.90
29453;DHT22;16424;50.956;5.320;2023-04-06T09:17:02;11.30;99.90
29453;DHT22;16424;50.956;5.320;2023-04-06T09:19:28;11.20;99.90
29453;DHT22;16424;50.956;5.320;2023-04-06T09:22:06;11.30;99.90
29453;DHT22;16424;50.956;5.320;2023-04-06T09:24:52;11.50;99.90
29453;DHT22;16424;50.956;5.320;2023-04-06T09:27:18;11.20;99.90
29453;DHT22;16424;50.956;5.320;2023-04-06T09:30:07;11.20;99.90
29453;DHT22;16424;50.956;5.320;2023-04-06T09:32:43;11.10;99.90
29453;DHT22;16424;50.956;5.320;2023-04-06T09:35:09;11.20;99.90
29453;DHT22;16424;50.956;5.320;2023-04-06T09:37:35;11.30;99.90
29453;DHT22;16424;50.956;5.320;2023-04-06T09:40:05;11.20;99.90
29453;DHT22;16424;50.956;5.320;2023-04-06T09:42:31;11.00;99.90
29453;DHT22;16424;50.956;5.320;2023-04-06T09:44:57;10.80;99.90
29453;DHT22;16424;50.956;5.320;2023-04-06T09:47:23;10.80;99.90
29453;DHT22;16424;50.956;5.320;2023-04-06T09:49:59;10.80;99.90
29453;DHT22;16424;50.956;5.320;2023-04-06T09:52:32;10.90;99.90
29453;DHT22;16424;50.956;5.320;2023-04-06T09:55:04;10.70;99.90
29453;DHT22;16424;50.956;5.320;2023-04-06T09:57:45;10.60;99.90
29453;DHT22;16424;50.956;5.320;2023-04-06T10:00:17;10.50;99.90
29453;DHT22;16424;50.956;5.320;2023-04-06T10:03:18;10.40;99.90
29453;DHT22;16424;50.956;5.320;2023-04-06T10:05:59;10.40;99.90
29453;DHT22;16424;50.956;5.320;2023-04-06T10:08:28;10.30;99.90
29453;DHT22;16424;50.956;5.320;2023-04-06T10:10:57;10.40;99.90
29453;DHT22;16424;50.956;5.320;2023-04-06T10:13:24;10.50;99.90
29453;DHT22;16424;50.956;5.320;2023-04-06T10:15:51;10.40;99.90
29453;DHT22;16424;50.956;5.320;2023-04-06T10:18:17;10.20;99.90
29453;DHT22;16424;50.956;5.320;2023-04-06T10:23:12;10.10;99.90
29453;DHT22;16424;50.956;5.320;2023-04-06T10:25:56;10.00;99.90
29453;DHT22;16424;50.956;5.320;2023-04-06T10:28:22;10.30;99.90
29453;DHT22;16424;50.956;5.320;2023-04-06T10:30:48;10.30;99.90
29453;DHT22;16424;50.956;5.320;2023-04-06T10:33:18;10.30;99.90
29453;DHT22;16424;50.956;5.320;2023-04-06T10:35:45;10.20;99.90
29453;DHT22;16424;50.956;5.320;2023-04-06T10:38:11;10.30;99.90
29453;DHT22;16424;50.956;5.320;2023-04-06T10:40:41;10.00;99.90
29453;DHT22;16424;50.956;5.320;2023-04-06T10:45:37;9.90;99.90
29453;DHT22;16424;50.956;5.320;2023-04-06T10:48:18;9.80;99.90
29453;DHT22;16424;50.956;5.320;2023-04-06T10:50:47;9.80;99.90
29453;DHT22;16424;50.956;5.320;2023-04-06T10:53:24;10.00;99.90
29453;DHT22;16424;50.956;5.320;2023-04-06T10:55:52;10.00;99.90
29453;DHT22;16424;50.956;5.320;2023-04-06T10:58:18;9.70;99.90
29453;DHT22;16424;50.956;5.320;2023-04-06T11:00:48;9.70;99.90
29453;DHT22;16424;50.956;5.320;2023-04-06T11:03:15;9.60;99.90
29453;DHT22;16424;50.956;5.320;2023-04-06T11:05:48;9.50;99.90
29453;DHT22;16424;50.956;5.320;2023-04-06T11:08:26;9.50;99.90
29453;DHT22;16424;50.956;5.320;2023-04-06T11:16:21;9.40;99.90
29453;DHT22;16424;50.956;5.320;2023-04-06T11:18:56;9.60;99.90
29453;DHT22;16424;50.956;5.320;2023-04-06T11:21:45;9.50;99.90
29453;DHT22;16424;50.956;5.320;2023-04-06T11:24:23;9.40;99.90
29453;DHT22;16424;50.956;5.320;2023-04-06T11:26:58;9.50;99.90
29453;DHT22;16424;50.956;5.320;2023-04-06T11:29:27;9.80;99.90
29453;DHT22;16424;50.956;5.320;2023-04-06T11:31:58;9.70;99.90
29453;DHT22;16424;50.956;5.320;2023-04-06T11:34:24;9.70;99.90
29453;DHT22;16424;50.956;5.320;2023-04-06T11:37:01;9.60;99.90
29453;DHT22;16424;50.956;5.320;2023-04-06T11:39:28;9.80;99.90
29453;DHT22;16424;50.956;5.320;2023-04-06T11:41:58;9.90;99.90
29453;DHT22;16424;50.956;5.320;2023-04-06T11:44:50;10.00;99.90
29453;DHT22;16424;50.956;5.320;2023-04-06T11:47:18;10.20;99.90
29453;DHT22;16424;50.956;5.320;2023-04-06T11:49:44;10.10;99.90
29453;DHT22;16424;50.956;5.320;2023-04-06T11:52:22;10.10;99.90
29453;DHT22;16424;50.956;5.320;2023-04-06T11:54:49;10.20;99.90
29453;DHT22;16424;50.956;5.320;2023-04-06T11:57:17;10.00;99.90
29453;DHT22;16424;50.956;5.320;2023-04-06T11:59:43;10.00;99.90
29453;DHT22;16424;50.956;5.320;2023-04-06T12:02:09;9.80;99.90
29453;DHT22;16424;50.956;5.320;2023-04-06T12:04:34;9.90;99.90
29453;DHT22;16424;50.956;5.320;2023-04-06T12:07:00;10.00;99.90
29453;DHT22;16424;50.956;5.320;2023-04-06T12:09:26;9.70;99.90
29453;DHT22;16424;50.956;5.320;2023-04-06T12:11:52;9.70;99.90
29453;DHT22;16424;50.956;5.320;2023-04-06T12:14:18;9.50;99.90
29453;DHT22;16424;50.956;5.320;2023-04-06T12:16:43;9.50;99.90
29453;DHT22;16424;50.956;5.320;2023-04-06T12:19:09;9.50;99.90
29453;DHT22;16424;50.956;5.320;2023-04-06T12:21:35;9.60;99.90
29453;DHT22;16424;50.956;5.320;2023-04-06T12:24:05;9.60;99.90
29453;DHT22;16424;50.956;5.320;2023-04-06T12:26:31;9.60;99.90
29453;DHT22;16424;50.956;5.320;2023-04-06T12:28:57;9.70;99.90
29453;DHT22;16424;50.956;5.320;2023-04-06T12:31:28;9.60;99.90
29453;DHT22;16424;50.956;5.320;2023-04-06T12:33:53;9.50;99.90
29453;DHT22;16424;50.956;5.320;2023-04-06T12:36:20;9.40;99.90
29453;DHT22;16424;50.956;5.320;2023-04-06T12:38:50;9.50;99.90
29453;DHT22;16424;50.956;5.320;2023-04-06T12:41:17;9.60;99.90
29453;DHT22;16424;50.956;5.320;2023-04-06T12:43:43;9.70;99.90
29453;DHT22;16424;50.956;5.320;2023-04-06T12:46:09;9.70;99.90
29453;DHT22;16424;50.956;5.320;2023-04-06T12:48:35;9.60;99.90
29453;DHT22;16424;50.956;5.320;2023-04-06T12:51:05;9.80;99.90
29453;DHT22;16424;50.956;5.320;2023-04-06T12:53:35;9.60;99.90
29453;DHT22;16424;50.956;5.320;2023-04-06T12:56:02;9.30;99.90
29453;DHT22;16424;50.956;5.320;2023-04-06T12:58:28;9.30;99.90
29453;DHT22;16424;50.956;5.320;2023-04-06T13:00:55;9.40;99.90
29453;DHT22;16424;50.956;5.320;2023-04-06T13:03:21;9.40;99.90
29453;DHT22;16424;50.956;5.320;2023-04-06T13:05:49;9.40;99.90
29453;DHT22;16424;50.956;5.320;2023-04-06T13:08:16;9.20;99.90
29453;DHT22;16424;50.956;5.320;2023-04-06T13:10:50;9.20;99.90
29453;DHT22;16424;50.956;5.320;2023-04-06T13:13:22;9.20;99.90
29453;DHT22;16424;50.956;5.320;2023-04-06T13:15:48;9.20;99.90
29453;DHT22;16424;50.956;5.320;2023-04-06T13:18:13;9.30;99.90
29453;DHT22;16424;50.956;5.320;2023-04-06T13:20:39;9.50;99.90
29453;DHT22;16424;50.956;5.320;2023-04-06T13:23:05;9.40;99.90
29453;DHT22;16424;50.956;5.320;2023-04-06T13:25:31;9.20;99.90
29453;DHT22;16424;50.956;5.320;2023-04-06T13:27:58;9.30;99.90
29453;DHT22;16424;50.956;5.320;2023-04-06T13:30:24;9.30;99.90
29453;DHT22;16424;50.956;5.320;2023-04-06T13:32:50;9.30;99.90
29453;DHT22;16424;50.956;5.320;2023-04-06T13:35:15;9.30;99.90
29453;DHT22;16424;50.956;5.320;2023-04-06T13:37:42;9.40;99.90
29453;DHT22;16424;50.956;5.320;2023-04-06T13:40:08;9.40;99.90
29453;DHT22;16424;50.956;5.320;2023-04-06T13:42:34;9.50;99.90
29453;DHT22;16424;50.956;5.320;2023-04-06T13:45:06;9.60;99.90
29453;DHT22;16424;50.956;5.320;2023-04-06T13:47:32;9.50;99.90
29453;DHT22;16424;50.956;5.320;2023-04-06T13:49:58;9.50;99.90
29453;DHT22;16424;50.956;5.320;2023-04-06T13:52:24;9.50;99.90
29453;DHT22;16424;50.956;5.320;2023-04-06T13:54:50;9.50;99.90
29453;DHT22;16424;50.956;5.320;2023-04-06T13:57:16;9.50;99.90
29453;DHT22;16424;50.956;5.320;2023-04-06T13:59:42;9.50;99.90
29453;DHT22;16424;50.956;5.320;2023-04-06T14:02:09;9.40;99.90
29453;DHT22;16424;50.956;5.320;2023-04-06T14:04:35;9.50;99.90
29453;DHT22;16424;50.956;5.320;2023-04-06T14:07:01;9.40;99.90
29453;DHT22;16424;50.956;5.320;2023-04-06T14:09:28;9.50;99.90
29453;DHT22;16424;50.956;5.320;2023-04-06T14:11:54;9.60;99.90
29453;DHT22;16424;50.956;5.320;2023-04-06T14:14:20;9.50;99.90
29453;DHT22;16424;50.956;5.320;2023-04-06T14:16:46;9.50;99.90
29453;DHT22;16424;50.956;5.320;2023-04-06T14:19:16;9.50;99.90
29453;DHT22;16424;50.956;5.320;2023-04-06T14:21:46;9.60;99.90
29453;DHT22;16424;50.956;5.320;2023-04-06T14:24:12;9.50;99.90
29453;DHT22;16424;50.956;5.320;2023-04-06T14:26:39;9.50;99.90
29453;DHT22;16424;50.956;5.320;2023-04-06T14:29:07;9.50;99.90
29453;DHT22;16424;50.956;5.320;2023-04-06T14:31:32;9.50;99.90
29453;DHT22;16424;50.956;5.320;2023-04-06T14:34:01;9.40;99.90
29453;DHT22;16424;50.956;5.320;2023-04-06T14:36:27;9.50;99.90
29453;DHT22;16424;50.956;5.320;2023-04-06T14:38:56;9.40;99.90
29453;DHT22;16424;50.956;5.320;2023-04-06T14:41:24;9.50;99.90
29453;DHT22;16424;50.956;5.320;2023-04-06T14:43:50;9.40;99.90
29453;DHT22;16424;50.956;5.320;2023-04-06T14:46:17;9.40;99.90
29453;DHT22;16424;50.956;5.320;2023-04-06T14:48:43;9.30;99.90
29453;DHT22;16424;50.956;5.320;2023-04-06T14:51:10;9.40;99.90
29453;DHT22;16424;50.956;5.320;2023-04-06T14:53:37;9.40;99.90
29453;DHT22;16424;50.956;5.320;2023-04-06T14:56:02;9.40;99.90
29453;DHT22;16424;50.956;5.320;2023-04-06T14:58:28;9.40;99.90
29453;DHT22;16424;50.956;5.320;2023-04-06T15:00:58;9.40;99.90
29453;DHT22;16424;50.956;5.320;2023-04-06T15:03:28;9.30;99.90
29453;DHT22;16424;50.956;5.320;2023-04-06T15:05:55;9.20;99.90
29453;DHT22;16424;50.956;5.320;2023-04-06T15:08:24;9.20;99.90
29453;DHT22;16424;50.956;5.320;2023-04-06T15:10:50;9.20;99.90
29453;DHT22;16424;50.956;5.320;2023-04-06T15:13:17;9.10;99.90
29453;DHT22;16424;50.956;5.320;2023-04-06T15:15:43;9.10;99.90
29453;DHT22;16424;50.956;5.320;2023-04-06T15:18:10;9.10;99.90
29453;DHT22;16424;50.956;5.320;2023-04-06T15:20:36;9.10;99.90
29453;DHT22;16424;50.956;5.320;2023-04-06T15:23:02;9.20;99.90
29453;DHT22;16424;50.956;5.320;2023-04-06T15:25:29;9.20;99.90
29453;DHT22;16424;50.956;5.320;2023-04-06T15:27:55;9.10;99.90
29453;DHT22;16424;50.956;5.320;2023-04-06T15:30:21;9.10;99.90
29453;DHT22;16424;50.956;5.320;2023-04-06T15:32:53;9.20;99.90
29453;DHT22;16424;50.956;5.320;2023-04-06T15:35:20;9.30;99.90
29453;DHT22;16424;50.956;5.320;2023-04-06T15:37:46;9.30;99.90
29453;DHT22;16424;50.956;5.320;2023-04-06T15:40:12;9.20;99.90
29453;DHT22;16424;50.956;5.320;2023-04-06T15:42:39;9.20;99.90
29453;DHT22;16424;50.956;5.320;2023-04-06T15:45:06;9.20;99.90
29453;DHT22;16424;50.956;5.320;2023-04-06T15:47:32;9.20;99.90
29453;DHT22;16424;50.956;5.320;2023-04-06T15:49:57;9.30;99.90
29453;DHT22;16424;50.956;5.320;2023-04-06T15:52:23;9.30;99.90
29453;DHT22;16424;50.956;5.320;2023-04-06T15:54:49;9.40;99.90